createdAt,value
2022-12-23T00:00:08.883Z,25.92
2022-12-23T00:02:41.147Z,19.52
2022-12-23T00:05:16.170Z,20.38
2022-12-23T00:07:47.092Z,19.40
2022-12-23T00:10:17.693Z,22.33
2022-12-23T00:13:06.788Z,16.98
2022-12-23T00:15:38.583Z,17.38
2022-12-23T00:18:09.554Z,17.85
2022-12-23T00:20:41.001Z,16.77
2022-12-23T00:23:12.045Z,20.10
2022-12-23T00:25:47.312Z,18.85
2022-12-23T00:28:20.826Z,17.77
2022-12-23T00:30:56.350Z,19.27
2022-12-23T00:33:29.548Z,19.38
2022-12-23T00:36:01.491Z,19.40
2022-12-23T00:38:50.097Z,21.83
2022-12-23T00:41:40.313Z,21.25
2022-12-23T00:44:11.097Z,13.68
2022-12-23T00:46:42.343Z,16.83
2022-12-23T00:49:35.925Z,25.50
2022-12-23T00:52:08.953Z,17.88
2022-12-23T00:54:40.481Z,14.38
2022-12-23T00:57:11.124Z,19.45
2022-12-23T00:59:41.787Z,61.92
2022-12-23T01:02:32.263Z,13.32
2022-12-23T01:05:21.222Z,12.75
2022-12-23T01:07:53.971Z,17.00
2022-12-23T01:10:27.716Z,17.63
2022-12-23T01:13:01.097Z,11.63
2022-12-23T01:15:32.233Z,15.77
2022-12-23T01:18:03.917Z,16.48
2022-12-23T01:20:34.846Z,18.65
2022-12-23T01:23:05.598Z,14.25
2022-12-23T01:25:36.104Z,8.45
2022-12-23T01:28:07.119Z,6.50
2022-12-23T01:30:39.628Z,7.03
2022-12-23T01:33:10.412Z,10.77
2022-12-23T01:35:41.578Z,6.57
2022-12-23T01:38:12.269Z,10.80
2022-12-23T01:40:46.044Z,10.10
2022-12-23T01:43:21.120Z,10.30
2022-12-23T01:45:54.407Z,16.25
2022-12-23T01:48:27.586Z,8.40
2022-12-23T01:51:04.338Z,6.28
2022-12-23T01:53:40.365Z,6.53
2022-12-23T01:56:24.938Z,6.50
2022-12-23T01:59:02.237Z,6.65
2022-12-23T02:01:51.574Z,7.35
2022-12-23T02:04:25.355Z,6.97
2022-12-23T02:07:14.342Z,4.07
2022-12-23T02:09:45.662Z,11.77
2022-12-23T02:12:35.039Z,8.45
2022-12-23T02:15:35.252Z,4.93
2022-12-23T02:18:24.312Z,11.48
2022-12-23T02:21:12.766Z,11.05
2022-12-23T02:23:43.057Z,7.20
2022-12-23T02:26:24.953Z,8.27
2022-12-23T02:29:24.331Z,7.40
2022-12-23T02:32:03.764Z,8.45
2022-12-23T02:34:58.610Z,5.10
2022-12-23T02:38:05.562Z,7.20
2022-12-23T02:40:48.387Z,5.03
2022-12-23T02:43:41.199Z,9.85
2022-12-23T02:46:22.271Z,12.32
2022-12-23T02:49:16.884Z,13.40
2022-12-23T02:51:53.577Z,11.88
2022-12-23T02:54:34.295Z,10.75
2022-12-23T02:57:09.469Z,12.55
2022-12-23T02:59:46.822Z,23.30
2022-12-23T03:02:17.536Z,12.30
2022-12-23T03:04:48.433Z,18.02
2022-12-23T03:07:43.835Z,12.18
2022-12-23T03:10:36.189Z,14.73
2022-12-23T03:13:40.106Z,14.02
2022-12-23T03:16:22.437Z,13.52
2022-12-23T03:19:14.915Z,19.20
2022-12-23T03:22:23.108Z,11.73
2022-12-23T03:25:12.315Z,10.00
2022-12-23T03:28:23.116Z,9.52
2022-12-23T03:30:56.373Z,5.47
2022-12-23T03:33:35.828Z,8.70
2022-12-23T03:36:17.455Z,5.93
2022-12-23T03:38:48.760Z,10.23
2022-12-23T03:41:23.481Z,36.70
2022-12-23T03:44:04.757Z,12.80
2022-12-23T03:46:40.406Z,5.20
2022-12-23T03:49:16.451Z,8.60
2022-12-23T03:51:58.111Z,9.15
2022-12-23T03:54:32.917Z,7.40
2022-12-23T03:57:05.911Z,13.15
2022-12-23T03:59:39.880Z,6.60
2022-12-23T04:02:35.744Z,10.02
2022-12-23T04:05:23.629Z,16.23
2022-12-23T04:08:02.906Z,10.25
2022-12-23T04:10:33.796Z,10.45
2022-12-23T04:13:04.490Z,8.00
2022-12-23T04:15:37.969Z,8.88
2022-12-23T04:18:10.606Z,10.15
2022-12-23T04:20:41.729Z,5.38
2022-12-23T04:23:12.962Z,4.28
2022-12-23T04:25:44.261Z,5.68
2022-12-23T04:28:19.164Z,4.38
2022-12-23T04:30:50.522Z,6.70
2022-12-23T04:33:21.440Z,6.47
2022-12-23T04:35:52.109Z,11.07
2022-12-23T04:38:23.141Z,6.60
2022-12-23T04:40:53.789Z,7.25
2022-12-23T04:43:24.365Z,8.13
2022-12-23T04:45:54.909Z,8.55
2022-12-23T04:48:25.685Z,11.45
2022-12-23T04:51:03.836Z,5.03
2022-12-23T04:53:38.030Z,5.80
2022-12-23T04:56:09.566Z,6.70
2022-12-23T04:58:40.039Z,10.73
2022-12-23T05:01:14.330Z,7.43
2022-12-23T05:03:45.160Z,6.93
2022-12-23T05:06:15.772Z,9.82
2022-12-23T05:08:46.407Z,9.95
2022-12-23T05:11:17.756Z,9.07
2022-12-23T05:13:49.098Z,9.95
2022-12-23T05:16:19.893Z,7.75
2022-12-23T05:18:53.110Z,8.10
2022-12-23T05:21:23.826Z,10.60
2022-12-23T05:23:54.708Z,11.02
2022-12-23T05:26:25.724Z,8.93
2022-12-23T05:28:56.855Z,11.43
2022-12-23T05:31:27.544Z,9.45
2022-12-23T05:34:06.353Z,10.63
2022-12-23T05:36:37.195Z,6.35
2022-12-23T05:39:08.901Z,9.57
2022-12-23T05:41:40.487Z,9.43
2022-12-23T05:44:10.790Z,13.18
2022-12-23T05:46:43.773Z,6.50
2022-12-23T05:49:14.546Z,8.82
2022-12-23T05:51:45.143Z,9.73
2022-12-23T05:54:15.987Z,13.20
2022-12-23T05:56:46.660Z,11.82
2022-12-23T05:59:18.487Z,11.38
2022-12-23T06:01:49.742Z,11.57
2022-12-23T06:04:20.452Z,11.95
2022-12-23T06:06:50.805Z,11.43
2022-12-23T06:09:24.277Z,13.20
2022-12-23T06:11:54.825Z,13.20
2022-12-23T06:14:29.090Z,12.82
2022-12-23T06:17:00.288Z,11.05
2022-12-23T06:19:30.899Z,11.73
2022-12-23T06:22:02.187Z,10.85
2022-12-23T06:24:33.691Z,10.73
2022-12-23T06:27:04.018Z,27.38
2022-12-23T06:29:36.862Z,11.18
2022-12-23T06:32:08.272Z,14.00
2022-12-23T06:34:39.283Z,11.90
2022-12-23T06:37:09.617Z,11.02
2022-12-23T06:39:40.119Z,12.10
2022-12-23T06:42:10.651Z,11.35
2022-12-23T06:44:42.106Z,11.65
2022-12-23T06:47:12.990Z,10.27
2022-12-23T06:49:43.608Z,19.92
2022-12-23T06:52:13.937Z,12.88
2022-12-23T06:54:44.529Z,11.93
2022-12-23T06:57:14.808Z,12.32
2022-12-23T06:59:45.640Z,12.85
2022-12-23T07:02:16.200Z,13.00
2022-12-23T07:04:47.001Z,15.13
2022-12-23T07:07:18.507Z,10.65
2022-12-23T07:09:49.085Z,11.43
2022-12-23T07:12:20.375Z,7.70
2022-12-23T07:14:51.035Z,7.95
2022-12-23T07:17:24.357Z,11.68
2022-12-23T07:19:54.911Z,5.78
2022-12-23T07:22:25.732Z,9.77
2022-12-23T07:24:56.038Z,9.25
2022-12-23T07:27:26.825Z,8.52
2022-12-23T07:29:57.245Z,12.70
2022-12-23T07:32:28.162Z,7.70
2022-12-23T07:34:58.783Z,8.90
2022-12-23T07:37:29.572Z,6.15
2022-12-23T07:40:08.267Z,4.90
2022-12-23T07:42:47.269Z,5.88
2022-12-23T07:45:20.901Z,10.77
2022-12-23T07:47:58.096Z,10.25
2022-12-23T07:50:34.032Z,8.38
2022-12-23T07:53:04.897Z,9.43
2022-12-23T07:55:35.644Z,11.30
2022-12-23T07:58:06.471Z,8.48
2022-12-23T08:00:37.360Z,10.02
2022-12-23T08:03:09.753Z,11.23
2022-12-23T08:05:40.421Z,16.63
2022-12-23T08:08:11.271Z,10.63
2022-12-23T08:10:48.053Z,8.50
2022-12-23T08:13:19.163Z,7.78
2022-12-23T08:15:50.236Z,7.60
2022-12-23T08:18:20.933Z,6.88
2022-12-23T08:21:04.258Z,8.85
2022-12-23T08:23:36.934Z,11.48
2022-12-23T08:26:10.751Z,7.82
2022-12-23T08:28:46.515Z,6.65
2022-12-23T08:31:30.001Z,9.20
2022-12-23T08:34:02.044Z,8.77
2022-12-23T08:36:34.952Z,9.13
2022-12-23T08:39:09.019Z,7.63
2022-12-23T08:41:42.781Z,10.40
2022-12-23T08:44:14.204Z,15.13
2022-12-23T08:46:46.183Z,10.02
2022-12-23T08:49:17.468Z,8.10
2022-12-23T08:51:48.507Z,14.43
2022-12-23T08:54:21.280Z,15.90
2022-12-23T08:56:52.320Z,9.05
2022-12-23T08:59:22.778Z,10.45
2022-12-23T09:01:53.517Z,11.85
2022-12-23T09:04:24.185Z,12.40
2022-12-23T09:06:54.891Z,10.15
2022-12-23T09:09:25.503Z,9.18
2022-12-23T09:11:56.568Z,16.10
2022-12-23T09:14:27.286Z,9.10
2022-12-23T09:16:58.429Z,15.00
2022-12-23T09:19:29.083Z,11.68
2022-12-23T09:22:00.227Z,10.00
2022-12-23T09:24:31.541Z,11.15
2022-12-23T09:27:02.473Z,9.38
2022-12-23T09:29:33.785Z,14.00
2022-12-23T09:32:04.652Z,12.75
2022-12-23T09:34:35.567Z,11.50
2022-12-23T09:37:07.012Z,14.10
2022-12-23T09:39:40.096Z,13.60
2022-12-23T09:42:34.588Z,14.32
2022-12-23T09:45:17.561Z,14.40
2022-12-23T09:47:48.184Z,12.20
2022-12-23T09:50:32.024Z,12.40
2022-12-23T09:53:23.074Z,11.30
2022-12-23T09:55:59.567Z,12.50
2022-12-23T09:58:49.830Z,16.30
2022-12-23T10:01:45.035Z,13.40
2022-12-23T10:04:25.170Z,17.00
2022-12-23T10:07:07.262Z,21.13
2022-12-23T10:09:40.789Z,19.80
2022-12-23T10:12:39.089Z,19.95
2022-12-23T10:15:22.554Z,26.50
2022-12-23T10:17:56.078Z,28.83
2022-12-23T10:20:41.618Z,26.25
2022-12-23T10:23:18.291Z,29.50
2022-12-23T10:25:52.824Z,16.33
2022-12-23T10:28:24.844Z,27.15
2022-12-23T10:31:30.867Z,27.42
2022-12-23T10:34:36.610Z,25.65
2022-12-23T10:37:18.868Z,20.90
2022-12-23T10:40:27.680Z,25.00
2022-12-23T10:43:00.547Z,23.77
2022-12-23T10:45:31.911Z,32.92
2022-12-23T10:48:23.467Z,28.33
2022-12-23T10:51:04.896Z,23.38
2022-12-23T10:54:04.358Z,22.23
2022-12-23T10:56:35.232Z,30.63
2022-12-23T10:59:09.034Z,27.05
2022-12-23T11:01:40.975Z,26.70
2022-12-23T11:04:22.524Z,39.10
2022-12-23T11:07:18.276Z,27.58
2022-12-23T11:10:06.312Z,34.25
2022-12-23T11:12:45.255Z,36.88
2022-12-23T11:15:39.367Z,39.22
2022-12-23T11:18:13.745Z,40.78
2022-12-23T11:20:46.677Z,25.30
2022-12-23T11:23:31.641Z,24.92
2022-12-23T11:26:05.350Z,27.73
2022-12-23T11:28:39.645Z,25.70
2022-12-23T11:31:15.347Z,29.65
2022-12-23T11:33:57.376Z,34.03
2022-12-23T11:36:29.858Z,28.10
2022-12-23T11:39:08.312Z,24.45
2022-12-23T11:41:45.372Z,24.88
2022-12-23T11:44:28.082Z,27.65
2022-12-23T11:47:00.351Z,29.67
2022-12-23T11:49:32.784Z,25.50
2022-12-23T11:52:11.295Z,21.98
2022-12-23T11:54:42.289Z,22.52
2022-12-23T11:57:20.119Z,25.02
2022-12-23T11:59:51.881Z,28.73
2022-12-23T12:02:42.768Z,33.23
2022-12-23T12:05:29.382Z,30.00
2022-12-23T12:08:05.468Z,19.25
2022-12-23T12:10:36.969Z,18.65
2022-12-23T12:13:10.573Z,20.15
2022-12-23T12:16:04.297Z,19.50
2022-12-23T12:18:35.845Z,19.08
2022-12-23T12:21:13.811Z,19.05
2022-12-23T12:23:55.472Z,21.00
2022-12-23T12:26:40.830Z,24.73
2022-12-23T12:29:31.371Z,17.05
2022-12-23T12:32:03.575Z,13.95
2022-12-23T12:34:42.965Z,19.63
2022-12-23T12:37:21.885Z,22.48
2022-12-23T12:40:13.012Z,21.58
2022-12-23T12:42:45.741Z,15.23
2022-12-23T12:45:57.628Z,17.83
2022-12-23T12:48:59.839Z,16.65
2022-12-23T12:51:49.859Z,15.35
2022-12-23T12:55:02.288Z,15.68
2022-12-23T12:57:38.177Z,19.95
2022-12-23T13:00:25.555Z,16.00
2022-12-23T13:03:13.404Z,12.15
2022-12-23T13:06:14.385Z,14.25
2022-12-23T13:09:07.016Z,17.63
2022-12-23T13:12:09.229Z,14.77
2022-12-23T13:15:00.288Z,16.42
2022-12-23T13:17:37.659Z,15.25
2022-12-23T13:20:38.278Z,18.05
2022-12-23T13:23:42.869Z,16.45
2022-12-23T13:26:35.023Z,14.45
2022-12-23T13:29:29.038Z,12.98
2022-12-23T13:32:17.749Z,12.80
2022-12-23T13:34:53.533Z,14.07
2022-12-23T13:37:45.177Z,15.38
2022-12-23T13:40:38.400Z,14.10
2022-12-23T13:43:17.739Z,13.85
2022-12-23T13:45:49.388Z,15.43
2022-12-23T13:48:53.949Z,16.67
2022-12-23T13:52:01.250Z,15.75
2022-12-23T13:54:37.145Z,19.15
2022-12-23T13:57:41.089Z,16.92
2022-12-23T14:00:23.062Z,18.17
2022-12-23T14:02:54.698Z,20.70
2022-12-23T14:05:48.128Z,15.77
2022-12-23T14:08:22.127Z,15.82
2022-12-23T14:11:02.246Z,17.38
2022-12-23T14:13:42.371Z,17.25
2022-12-23T14:16:17.781Z,16.10
2022-12-23T14:19:02.845Z,17.00
2022-12-23T14:21:42.437Z,23.55
2022-12-23T14:24:30.906Z,17.63
2022-12-23T14:27:22.891Z,13.60
2022-12-23T14:30:11.819Z,15.45
2022-12-23T14:33:03.832Z,18.20
2022-12-23T14:35:42.865Z,15.70
2022-12-23T14:38:17.002Z,33.15
2022-12-23T14:40:52.592Z,38.10
2022-12-23T14:43:52.344Z,28.63
2022-12-23T14:46:51.462Z,21.70
2022-12-23T14:49:45.561Z,19.08
2022-12-23T14:52:51.943Z,25.25
2022-12-23T14:55:31.596Z,17.33
2022-12-23T14:58:25.893Z,16.25
2022-12-23T15:01:04.733Z,13.32
2022-12-23T15:03:41.661Z,16.05
2022-12-23T15:06:44.473Z,12.45
2022-12-23T15:09:55.711Z,19.38
2022-12-23T15:12:35.783Z,15.98
2022-12-23T15:15:27.104Z,12.40
2022-12-23T15:18:11.189Z,12.98
2022-12-23T15:20:41.876Z,16.75
2022-12-23T15:23:15.844Z,15.80
2022-12-23T15:25:47.915Z,16.90
2022-12-23T15:28:26.245Z,17.80
2022-12-23T15:30:58.149Z,14.55
2022-12-23T15:36:29.474Z,11.60
2022-12-23T15:39:01.614Z,14.18
2022-12-23T15:41:32.824Z,12.50
2022-12-23T15:44:11.049Z,9.50
2022-12-23T15:46:42.757Z,13.75
2022-12-23T15:49:14.467Z,9.10
2022-12-23T15:52:07.237Z,8.00
2022-12-23T15:54:59.325Z,11.65
2022-12-23T15:57:31.233Z,11.65
2022-12-23T16:00:02.477Z,7.43
2022-12-23T16:03:02.175Z,6.80
2022-12-23T16:05:38.479Z,9.35
2022-12-23T16:08:21.797Z,9.18
2022-12-23T16:11:08.503Z,11.82
2022-12-23T16:13:43.124Z,8.38
2022-12-23T16:16:43.735Z,8.65
2022-12-23T16:19:48.949Z,7.95
2022-12-23T16:22:22.626Z,8.18
2022-12-23T16:25:16.010Z,7.10
2022-12-23T16:27:50.229Z,8.07
2022-12-23T16:30:27.348Z,11.25
2022-12-23T16:33:08.873Z,6.82
2022-12-23T16:35:42.099Z,9.18
2022-12-23T16:38:26.154Z,7.88
2022-12-23T16:40:58.391Z,6.43
2022-12-23T16:43:29.300Z,8.38
2022-12-23T16:46:00.836Z,11.18
2022-12-23T16:48:44.772Z,8.85
2022-12-23T16:51:17.992Z,10.20
2022-12-23T16:53:56.212Z,8.05
2022-12-23T16:56:30.217Z,7.22
2022-12-23T16:59:00.766Z,6.85
2022-12-23T17:01:40.273Z,6.65
2022-12-23T17:04:11.486Z,6.85
2022-12-23T17:06:42.555Z,10.65
2022-12-23T17:09:13.287Z,6.18
2022-12-23T17:11:49.633Z,9.85
2022-12-23T17:14:25.157Z,6.82
2022-12-23T17:16:55.825Z,6.70
2022-12-23T17:19:29.177Z,6.65
2022-12-23T17:22:03.252Z,6.63
2022-12-23T17:24:33.768Z,9.50
2022-12-23T17:27:06.534Z,7.95
2022-12-23T17:29:37.387Z,7.32
2022-12-23T17:32:13.483Z,8.50
2022-12-23T17:34:44.290Z,7.20
2022-12-23T17:37:17.327Z,7.18
2022-12-23T17:39:48.690Z,6.78
2022-12-23T17:42:25.812Z,6.32
2022-12-23T17:44:57.606Z,8.57
2022-12-23T17:47:29.183Z,7.20
2022-12-23T17:49:59.510Z,8.05
2022-12-23T17:52:30.280Z,4.40
2022-12-23T17:55:01.255Z,5.20
2022-12-23T17:57:32.707Z,7.07
2022-12-23T18:00:03.082Z,6.32
2022-12-23T18:02:42.514Z,7.18
2022-12-23T18:05:27.789Z,6.32
2022-12-23T18:08:00.578Z,5.80
2022-12-23T18:10:38.531Z,5.07
2022-12-23T18:13:14.963Z,7.47
2022-12-23T18:15:46.740Z,3.63
2022-12-23T18:18:28.565Z,8.95
2022-12-23T18:21:01.605Z,4.03
2022-12-23T18:23:34.857Z,6.45
2022-12-23T18:26:09.020Z,6.20
2022-12-23T18:28:42.834Z,5.88
2022-12-23T18:31:22.830Z,3.70
2022-12-23T18:33:53.517Z,7.68
2022-12-23T18:36:31.275Z,3.35
2022-12-23T18:39:01.959Z,3.22
2022-12-23T18:41:33.112Z,2.95
2022-12-23T18:44:04.226Z,5.00
2022-12-23T18:46:35.343Z,3.53
2022-12-23T18:49:05.856Z,4.50
2022-12-23T18:51:36.674Z,4.38
2022-12-23T18:54:07.983Z,4.68
2022-12-23T18:56:39.006Z,3.55
2022-12-23T18:59:17.274Z,4.63
2022-12-23T19:01:48.075Z,6.15
2022-12-23T19:04:18.835Z,3.50
2022-12-23T19:06:49.357Z,4.22
2022-12-23T19:09:21.819Z,5.13
2022-12-23T19:11:54.545Z,4.60
2022-12-23T19:14:25.195Z,6.18
2022-12-23T19:17:00.892Z,4.32
2022-12-23T19:19:31.647Z,6.55
2022-12-23T19:22:03.270Z,4.07
2022-12-23T19:24:34.156Z,3.55
2022-12-23T19:27:07.786Z,7.72
2022-12-23T19:29:38.672Z,4.15
2022-12-23T19:32:09.478Z,8.25
2022-12-23T19:34:40.177Z,6.10
2022-12-23T19:37:11.039Z,4.55
2022-12-23T19:39:42.365Z,5.07
2022-12-23T19:42:12.918Z,5.18
2022-12-23T19:44:43.413Z,4.60
2022-12-23T19:47:13.989Z,4.32
2022-12-23T19:49:44.381Z,5.18
2022-12-23T19:52:15.041Z,5.57
2022-12-23T19:54:46.262Z,5.95
2022-12-23T19:57:16.892Z,4.70
2022-12-23T19:59:48.143Z,5.32
2022-12-23T20:02:20.940Z,5.10
2022-12-23T20:04:51.521Z,3.50
2022-12-23T20:07:22.043Z,3.78
2022-12-23T20:09:53.332Z,6.07
2022-12-23T20:12:24.519Z,4.45
2022-12-23T20:14:57.921Z,4.22
2022-12-23T20:17:28.465Z,3.83
2022-12-23T20:19:59.117Z,3.97
2022-12-23T20:22:32.577Z,3.40
2022-12-23T20:25:06.354Z,3.70
2022-12-23T20:27:39.678Z,5.85
2022-12-23T20:30:11.333Z,4.55
2022-12-23T20:32:41.831Z,3.40
2022-12-23T20:35:13.509Z,4.85
2022-12-23T20:37:45.165Z,5.22
2022-12-23T20:40:18.426Z,6.82
2022-12-23T20:42:48.692Z,5.75
2022-12-23T20:45:19.330Z,5.22
2022-12-23T20:47:49.892Z,6.15
2022-12-23T20:50:20.628Z,9.18
2022-12-23T20:52:51.727Z,6.45
2022-12-23T20:55:22.127Z,10.13
2022-12-23T20:57:52.544Z,6.05
2022-12-23T21:00:23.006Z,6.82
2022-12-23T21:02:53.620Z,6.13
2022-12-23T21:05:24.200Z,7.88
2022-12-23T21:07:54.806Z,6.72
2022-12-23T21:10:24.888Z,8.80
2022-12-23T21:12:55.806Z,11.18
2022-12-23T21:15:26.663Z,7.20
2022-12-23T21:17:57.604Z,7.18
2022-12-23T21:20:28.751Z,7.55
2022-12-23T21:23:00.229Z,8.10
2022-12-23T21:25:30.813Z,6.45
2022-12-23T21:28:01.158Z,7.28
2022-12-23T21:30:35.123Z,6.03
2022-12-23T21:33:14.824Z,7.95
2022-12-23T21:35:45.371Z,8.27
2022-12-23T21:38:16.867Z,7.05
2022-12-23T21:40:50.710Z,9.73
2022-12-23T21:43:23.918Z,8.85
2022-12-23T21:45:59.136Z,6.15
2022-12-23T21:48:32.169Z,9.98
2022-12-23T21:51:19.986Z,8.88
2022-12-23T21:53:53.354Z,7.15
2022-12-23T21:56:27.402Z,7.75
2022-12-23T21:59:00.114Z,6.50
2022-12-23T22:01:34.115Z,7.07
2022-12-23T22:04:04.746Z,9.35
2022-12-23T22:06:43.031Z,6.97
2022-12-23T22:09:20.527Z,6.80
2022-12-23T22:11:52.523Z,9.25
2022-12-23T22:14:23.877Z,9.48
2022-12-23T22:16:54.556Z,10.00
2022-12-23T22:19:25.347Z,12.68
2022-12-23T22:21:55.742Z,16.98
2022-12-23T22:24:26.227Z,23.77
2022-12-23T22:26:56.825Z,17.83
2022-12-23T22:29:27.426Z,15.00
2022-12-23T22:31:58.326Z,14.30
2022-12-23T22:34:29.314Z,10.68
2022-12-23T22:37:02.581Z,11.25
2022-12-23T22:39:33.418Z,10.23
2022-12-23T22:42:04.319Z,7.97
2022-12-23T22:44:35.413Z,9.25
2022-12-23T22:47:05.751Z,9.70
2022-12-23T22:49:36.284Z,8.35
2022-12-23T22:52:08.047Z,10.68
2022-12-23T22:54:38.610Z,13.77
2022-12-23T22:57:09.183Z,12.40
2022-12-23T22:59:39.734Z,13.35
2022-12-23T23:02:10.446Z,8.93
2022-12-23T23:04:40.999Z,11.85
2022-12-23T23:07:11.627Z,9.02
2022-12-23T23:09:42.642Z,14.88
2022-12-23T23:12:13.800Z,12.18
2022-12-23T23:15:01.911Z,13.48
2022-12-23T23:17:33.292Z,11.55
2022-12-23T23:20:06.381Z,13.77
2022-12-23T23:22:40.199Z,11.68
2022-12-23T23:25:11.366Z,11.02
2022-12-23T23:27:41.617Z,9.23
2022-12-23T23:30:12.574Z,10.57
2022-12-23T23:32:43.164Z,14.85
2022-12-23T23:35:14.143Z,11.40
2022-12-23T23:37:45.011Z,8.48
2022-12-23T23:40:17.277Z,14.05
2022-12-23T23:42:48.293Z,15.52
2022-12-23T23:45:22.334Z,14.57
2022-12-23T23:47:53.000Z,15.70
2022-12-23T23:50:26.268Z,13.75
2022-12-23T23:52:58.336Z,12.85
2022-12-23T23:55:29.405Z,15.35
2022-12-23T23:57:59.852Z,11.45
